createdAt,value
2018-12-31T00:01:10.251Z,94.99
2018-12-31T00:03:41.036Z,94.92
2018-12-31T00:06:11.760Z,94.93
2018-12-31T00:08:42.569Z,94.96
2018-12-31T00:11:13.394Z,94.99
2018-12-31T00:13:44.156Z,95.01
2018-12-31T00:16:14.897Z,94.91
2018-12-31T00:18:45.729Z,94.93
2018-12-31T00:21:16.484Z,94.96
2018-12-31T00:23:47.265Z,94.94
2018-12-31T00:26:18.041Z,95.00
2018-12-31T00:28:48.916Z,95.10
2018-12-31T00:31:19.761Z,95.12
2018-12-31T00:33:50.557Z,95.15
2018-12-31T00:36:21.392Z,95.18
2018-12-31T00:38:52.155Z,95.19
2018-12-31T00:41:22.901Z,95.23
2018-12-31T00:43:53.787Z,95.26
2018-12-31T00:46:24.555Z,95.25
2018-12-31T00:48:55.337Z,95.21
2018-12-31T00:51:26.074Z,95.19
2018-12-31T00:53:56.942Z,95.18
2018-12-31T00:56:27.694Z,95.16
2018-12-31T00:58:58.475Z,95.20
2018-12-31T01:01:29.217Z,95.23
2018-12-31T01:04:00.004Z,95.26
2018-12-31T01:06:30.753Z,95.28
2018-12-31T01:09:01.588Z,95.31
2018-12-31T01:11:32.498Z,95.27
2018-12-31T01:14:03.322Z,95.26
2018-12-31T01:16:34.065Z,95.22
2018-12-31T01:19:04.825Z,95.23
2018-12-31T01:21:35.744Z,95.26
2018-12-31T01:24:06.526Z,95.32
2018-12-31T01:26:37.298Z,95.29
2018-12-31T01:29:08.092Z,95.29
2018-12-31T01:31:38.845Z,95.32
2018-12-31T01:34:10.226Z,95.27
2018-12-31T01:36:40.984Z,95.16
2018-12-31T01:39:11.744Z,95.14
2018-12-31T01:41:42.473Z,95.15
2018-12-31T01:44:13.423Z,95.21
2018-12-31T01:46:44.176Z,95.25
2018-12-31T01:49:14.966Z,95.21
2018-12-31T01:51:45.690Z,95.21
2018-12-31T01:54:16.471Z,95.26
2018-12-31T01:56:47.210Z,95.20
2018-12-31T01:59:17.992Z,95.23
2018-12-31T02:01:48.730Z,95.30
2018-12-31T02:04:19.573Z,95.37
2018-12-31T02:06:50.332Z,95.44
2018-12-31T02:09:21.098Z,95.49
2018-12-31T02:11:51.842Z,95.43
2018-12-31T02:14:22.668Z,95.38
2018-12-31T02:16:53.412Z,95.39
2018-12-31T02:19:24.189Z,95.38
2018-12-31T02:21:54.991Z,95.41
2018-12-31T02:24:25.759Z,95.43
2018-12-31T02:26:56.527Z,95.38
2018-12-31T02:29:27.309Z,95.31
2018-12-31T02:31:58.337Z,95.28
2018-12-31T02:34:29.125Z,95.21
2018-12-31T02:36:59.864Z,95.24
2018-12-31T02:39:30.787Z,95.31
2018-12-31T02:42:01.535Z,95.36
2018-12-31T02:44:32.287Z,95.33
2018-12-31T02:47:03.029Z,95.24
2018-12-31T02:49:33.865Z,95.27
2018-12-31T02:52:04.623Z,95.30
2018-12-31T02:54:35.521Z,95.37
2018-12-31T02:57:06.266Z,95.46
2018-12-31T02:59:37.028Z,95.51
2018-12-31T03:02:07.793Z,95.50
2018-12-31T03:04:38.590Z,95.53
2018-12-31T03:07:09.373Z,95.50
2018-12-31T03:09:40.130Z,95.53
2018-12-31T03:12:10.886Z,95.50
2018-12-31T03:14:41.667Z,95.47
2018-12-31T03:17:12.517Z,95.50
2018-12-31T03:19:43.288Z,95.57
2018-12-31T03:22:14.070Z,95.62
2018-12-31T03:24:44.859Z,95.71
2018-12-31T03:27:15.731Z,95.74
2018-12-31T03:29:46.633Z,95.78
2018-12-31T03:32:17.389Z,95.78
2018-12-31T03:34:48.177Z,95.80
2018-12-31T03:37:18.916Z,95.79
2018-12-31T03:39:49.849Z,95.78
2018-12-31T03:42:20.671Z,95.82
2018-12-31T03:44:51.408Z,95.81
2018-12-31T03:47:22.166Z,95.80
2018-12-31T03:49:52.915Z,95.81
2018-12-31T03:52:23.753Z,95.81
2018-12-31T03:55:02.899Z,95.80
2018-12-31T03:57:41.026Z,95.83
2018-12-31T04:00:11.736Z,95.82
2018-12-31T04:02:42.480Z,95.76
2018-12-31T04:05:13.259Z,95.73
2018-12-31T04:07:44.026Z,95.79
2018-12-31T04:10:15.019Z,95.86
2018-12-31T04:12:45.914Z,95.80
2018-12-31T04:15:16.697Z,95.78
2018-12-31T04:17:47.449Z,95.55
2018-12-31T04:20:18.216Z,95.42
2018-12-31T04:22:48.996Z,95.44
2018-12-31T04:25:19.767Z,95.53
2018-12-31T04:27:50.628Z,95.59
2018-12-31T04:30:21.486Z,95.56
2018-12-31T04:32:52.235Z,95.56
2018-12-31T04:35:23.067Z,95.58
2018-12-31T04:37:53.810Z,95.60
2018-12-31T04:40:24.566Z,95.66
2018-12-31T04:42:55.348Z,95.73
2018-12-31T04:45:26.206Z,95.80
2018-12-31T04:47:56.947Z,95.79
2018-12-31T04:50:27.718Z,95.81
2018-12-31T04:52:58.456Z,95.81
2018-12-31T04:55:29.323Z,95.78
2018-12-31T04:58:00.078Z,95.79
2018-12-31T05:00:30.858Z,95.79
2018-12-31T05:03:01.856Z,95.73
2018-12-31T05:05:32.627Z,95.55
2018-12-31T05:08:03.403Z,95.05
2018-12-31T05:10:34.234Z,95.04
2018-12-31T05:13:05.312Z,95.18
2018-12-31T05:15:36.103Z,95.35
2018-12-31T05:18:06.934Z,95.53
2018-12-31T05:20:37.720Z,95.57
2018-12-31T05:23:08.512Z,95.65
2018-12-31T05:25:39.469Z,95.73
2018-12-31T05:28:10.221Z,95.76
2018-12-31T05:30:40.996Z,95.56
2018-12-31T05:33:11.747Z,95.43
2018-12-31T05:35:42.535Z,95.45
2018-12-31T05:38:13.293Z,95.51
2018-12-31T05:40:44.288Z,95.47
2018-12-31T05:43:15.106Z,95.51
2018-12-31T05:45:46.318Z,95.53
2018-12-31T05:48:17.061Z,95.58
2018-12-31T05:50:47.842Z,95.52
2018-12-31T05:53:18.603Z,95.35
2018-12-31T05:55:49.365Z,95.29
2018-12-31T05:58:20.253Z,94.98
2018-12-31T06:00:51.038Z,94.90
2018-12-31T06:03:21.815Z,94.87
2018-12-31T06:05:52.701Z,94.99
2018-12-31T06:08:23.753Z,94.84
2018-12-31T06:10:54.533Z,94.70
2018-12-31T06:13:25.296Z,94.63
2018-12-31T06:15:56.074Z,94.70
2018-12-31T06:18:26.819Z,94.76
2018-12-31T06:20:58.279Z,94.82
2018-12-31T06:23:29.034Z,94.86
2018-12-31T06:25:59.882Z,94.94
2018-12-31T06:28:30.617Z,95.01
2018-12-31T06:31:01.833Z,95.03
2018-12-31T06:33:32.602Z,94.98
2018-12-31T06:36:03.350Z,94.77
2018-12-31T06:38:34.164Z,94.48
2018-12-31T06:41:04.946Z,94.33
2018-12-31T06:43:35.730Z,94.28
2018-12-31T06:46:06.466Z,94.22
2018-12-31T06:48:37.253Z,94.15
2018-12-31T06:51:08.017Z,94.16
2018-12-31T06:53:38.767Z,94.28
2018-12-31T06:56:09.512Z,94.48
2018-12-31T06:58:40.290Z,94.50
2018-12-31T07:01:11.035Z,94.59
2018-12-31T07:03:41.818Z,94.63
2018-12-31T07:06:12.555Z,94.66
2018-12-31T07:08:43.464Z,94.73
2018-12-31T07:11:14.191Z,94.68
2018-12-31T07:13:44.979Z,94.60
2018-12-31T07:16:15.746Z,94.20
2018-12-31T07:18:46.538Z,92.71
2018-12-31T07:21:17.287Z,92.49
2018-12-31T07:23:48.074Z,92.48
2018-12-31T07:26:18.933Z,92.35
2018-12-31T07:28:49.728Z,92.73
2018-12-31T07:31:20.503Z,93.17
2018-12-31T07:33:51.270Z,93.38
2018-12-31T07:36:22.297Z,92.96
2018-12-31T07:38:53.109Z,93.20
2018-12-31T07:41:23.799Z,93.33
2018-12-31T07:43:54.529Z,92.88
2018-12-31T07:46:25.250Z,92.70
2018-12-31T07:48:55.955Z,92.89
2018-12-31T07:51:26.647Z,92.77
2018-12-31T07:53:57.417Z,92.50
2018-12-31T07:56:28.131Z,92.94
2018-12-31T07:58:58.882Z,93.08
2018-12-31T08:01:29.581Z,93.15
2018-12-31T08:04:00.271Z,92.80
2018-12-31T08:06:30.964Z,92.83
2018-12-31T08:09:02.990Z,92.63
2018-12-31T08:11:33.699Z,92.08
2018-12-31T08:14:04.428Z,91.69
2018-12-31T08:16:35.118Z,91.98
2018-12-31T08:19:06.017Z,92.48
2018-12-31T08:21:36.712Z,92.29
2018-12-31T08:24:07.429Z,92.29
2018-12-31T08:26:38.137Z,91.71
2018-12-31T08:29:08.958Z,91.65
2018-12-31T08:31:39.662Z,91.86
2018-12-31T08:34:10.397Z,91.88
2018-12-31T08:36:41.105Z,91.83
2018-12-31T08:39:11.952Z,92.10
2018-12-31T08:41:42.682Z,92.43
2018-12-31T08:44:13.475Z,92.63
2018-12-31T08:46:44.193Z,92.56
2018-12-31T08:49:14.928Z,92.66
2018-12-31T08:51:45.746Z,92.51
2018-12-31T08:54:16.487Z,92.51
2018-12-31T08:56:47.205Z,92.51
2018-12-31T08:59:17.962Z,92.64
2018-12-31T09:01:48.728Z,92.39
2018-12-31T09:04:19.482Z,92.66
2018-12-31T09:06:50.248Z,92.88
2018-12-31T09:09:21.069Z,92.69
2018-12-31T09:11:51.787Z,92.59
2018-12-31T09:14:22.497Z,91.99
2018-12-31T09:16:53.183Z,92.17
2018-12-31T09:19:23.903Z,92.43
2018-12-31T09:21:54.609Z,92.68
2018-12-31T09:24:25.488Z,92.55
2018-12-31T09:26:56.271Z,91.99
2018-12-31T09:29:26.991Z,92.00
2018-12-31T09:31:57.668Z,91.89
2018-12-31T09:34:28.416Z,92.16
2018-12-31T09:36:59.136Z,92.45
2018-12-31T09:39:29.872Z,92.34
2018-12-31T09:42:00.548Z,92.18
2018-12-31T09:44:31.282Z,92.33
2018-12-31T09:47:02.110Z,92.27
2018-12-31T09:49:32.832Z,91.76
2018-12-31T09:52:03.552Z,91.36
2018-12-31T09:54:34.384Z,90.68
2018-12-31T09:57:05.158Z,90.77
2018-12-31T09:59:35.879Z,91.15
2018-12-31T10:02:06.856Z,91.42
2018-12-31T10:04:37.700Z,91.46
2018-12-31T10:07:08.390Z,91.55
2018-12-31T10:09:39.173Z,91.54
2018-12-31T10:12:09.871Z,91.60
2018-12-31T10:14:40.607Z,91.68
2018-12-31T10:17:11.320Z,91.28
2018-12-31T10:19:42.053Z,91.07
2018-12-31T10:22:12.762Z,90.75
2018-12-31T10:24:43.492Z,89.50
2018-12-31T10:27:14.327Z,89.85
2018-12-31T10:29:45.080Z,90.10
2018-12-31T10:32:15.796Z,90.51
2018-12-31T10:34:46.587Z,90.61
2018-12-31T10:37:17.366Z,90.73
2018-12-31T10:39:48.037Z,90.64
2018-12-31T10:42:18.735Z,90.61
2018-12-31T10:44:49.472Z,90.76
2018-12-31T10:47:20.210Z,90.20
2018-12-31T10:49:51.015Z,90.25
2018-12-31T10:52:21.725Z,89.80
2018-12-31T10:54:52.476Z,89.04
2018-12-31T10:57:23.201Z,89.43
2018-12-31T10:59:53.959Z,89.65
2018-12-31T11:02:24.666Z,89.46
2018-12-31T11:04:55.508Z,89.65
2018-12-31T11:07:26.307Z,89.76
2018-12-31T11:09:57.174Z,89.42
2018-12-31T11:12:27.935Z,89.30
2018-12-31T11:14:58.706Z,89.32
2018-12-31T11:17:29.440Z,89.56
2018-12-31T11:20:00.249Z,89.67
2018-12-31T11:22:30.975Z,89.81
2018-12-31T11:25:02.102Z,89.86
2018-12-31T11:27:32.796Z,89.89
2018-12-31T11:30:03.524Z,89.96
2018-12-31T11:32:34.219Z,89.88
2018-12-31T11:35:04.954Z,89.84
2018-12-31T11:37:35.798Z,89.85
2018-12-31T11:40:07.355Z,89.28
2018-12-31T11:42:38.069Z,89.44
2018-12-31T11:45:09.248Z,89.42
2018-12-31T11:47:39.948Z,89.47
2018-12-31T11:50:10.683Z,89.50
2018-12-31T11:52:41.648Z,89.48
2018-12-31T11:55:12.476Z,89.33
2018-12-31T11:57:43.183Z,89.20
2018-12-31T12:00:14.114Z,89.00
2018-12-31T12:02:44.905Z,89.05
2018-12-31T12:05:15.646Z,89.23
2018-12-31T12:07:46.385Z,88.96
2018-12-31T12:10:17.202Z,88.91
2018-12-31T12:12:47.957Z,88.46
2018-12-31T12:15:18.728Z,88.49
2018-12-31T12:17:49.424Z,88.39
2018-12-31T12:20:20.384Z,88.57
2018-12-31T12:22:51.088Z,88.63
2018-12-31T12:25:21.838Z,88.77
2018-12-31T12:27:52.533Z,88.23
2018-12-31T12:30:23.280Z,88.26
2018-12-31T12:32:54.020Z,88.58
2018-12-31T12:35:24.737Z,88.28
2018-12-31T12:37:55.441Z,88.62
2018-12-31T12:40:26.166Z,88.82
2018-12-31T12:42:56.870Z,88.96
2018-12-31T12:45:27.682Z,89.03
2018-12-31T12:47:58.379Z,88.76
2018-12-31T12:50:29.126Z,88.73
2018-12-31T12:53:00.266Z,88.70
2018-12-31T12:55:31.009Z,88.82
2018-12-31T12:58:01.893Z,88.83
2018-12-31T13:00:32.717Z,88.92
2018-12-31T13:03:03.501Z,88.93
2018-12-31T13:05:34.323Z,88.94
2018-12-31T13:08:05.087Z,88.87
2018-12-31T13:10:35.909Z,88.90
2018-12-31T13:13:06.734Z,88.70
2018-12-31T13:15:37.533Z,88.74
2018-12-31T13:18:08.354Z,88.92
2018-12-31T13:20:39.179Z,88.90
2018-12-31T13:23:10.030Z,88.92
2018-12-31T13:25:41.173Z,88.94
2018-12-31T13:28:12.085Z,88.43
2018-12-31T13:30:42.891Z,88.44
2018-12-31T13:33:13.673Z,88.55
2018-12-31T13:35:45.341Z,88.68
2018-12-31T13:38:16.226Z,88.17
2018-12-31T13:40:47.004Z,88.18
2018-12-31T13:43:17.807Z,87.71
2018-12-31T13:45:48.622Z,87.57
2018-12-31T13:48:19.606Z,87.97
2018-12-31T13:50:50.425Z,87.79
2018-12-31T13:53:21.353Z,88.02
2018-12-31T13:55:52.140Z,88.21
2018-12-31T13:58:22.922Z,88.11
2018-12-31T14:00:53.786Z,88.20
2018-12-31T14:03:24.681Z,88.44
2018-12-31T14:05:55.445Z,88.49
2018-12-31T14:08:26.250Z,88.59
2018-12-31T14:10:57.148Z,88.66
2018-12-31T14:13:27.956Z,88.37
2018-12-31T14:15:58.723Z,88.42
2018-12-31T14:18:29.600Z,88.55
2018-12-31T14:21:00.659Z,88.59
2018-12-31T14:23:31.614Z,88.60
2018-12-31T14:26:02.401Z,88.61
2018-12-31T14:28:33.180Z,88.46
2018-12-31T14:31:03.945Z,88.22
2018-12-31T14:33:34.841Z,88.32
2018-12-31T14:36:05.679Z,88.15
2018-12-31T14:38:36.452Z,88.25
2018-12-31T14:41:07.378Z,88.44
2018-12-31T14:43:38.120Z,88.57
2018-12-31T14:46:08.889Z,88.70
2018-12-31T14:48:39.792Z,88.67
2018-12-31T14:51:10.560Z,88.72
2018-12-31T14:53:41.850Z,88.91
2018-12-31T14:56:12.643Z,89.09
2018-12-31T14:58:43.427Z,89.18
2018-12-31T15:01:14.339Z,89.29
2018-12-31T15:03:45.184Z,89.28
2018-12-31T15:06:16.157Z,89.26
2018-12-31T15:08:46.999Z,89.45
2018-12-31T15:11:17.865Z,89.54
2018-12-31T15:13:48.713Z,89.56
2018-12-31T15:16:19.640Z,89.52
2018-12-31T15:18:50.573Z,89.54
2018-12-31T15:21:21.453Z,89.45
2018-12-31T15:23:52.227Z,89.51
2018-12-31T15:26:23.293Z,89.61
2018-12-31T15:28:54.162Z,89.39
2018-12-31T15:31:24.851Z,89.58
2018-12-31T15:33:55.671Z,89.58
2018-12-31T15:36:26.354Z,89.62
2018-12-31T15:38:57.122Z,89.74
2018-12-31T15:41:27.853Z,89.74
2018-12-31T15:43:58.560Z,89.66
2018-12-31T15:46:29.341Z,89.74
2018-12-31T15:49:00.328Z,89.80
2018-12-31T15:51:31.077Z,89.86
2018-12-31T15:54:02.688Z,89.82
2018-12-31T15:56:33.520Z,89.80
2018-12-31T15:59:04.287Z,89.85
2018-12-31T16:01:34.992Z,89.86
2018-12-31T16:04:05.724Z,89.83
2018-12-31T16:06:36.407Z,89.85
2018-12-31T16:09:08.783Z,89.94
2018-12-31T16:11:39.782Z,89.91
2018-12-31T16:14:10.503Z,89.90
2018-12-31T16:16:41.212Z,89.84
2018-12-31T16:19:11.998Z,89.96
2018-12-31T16:21:42.639Z,89.96
2018-12-31T16:24:13.463Z,89.89
2018-12-31T16:26:44.173Z,89.96
2018-12-31T16:29:15.089Z,89.91
2018-12-31T16:31:45.929Z,89.79
2018-12-31T16:34:16.855Z,89.80
2018-12-31T16:36:47.627Z,89.80
2018-12-31T16:39:18.423Z,89.91
2018-12-31T16:41:49.186Z,89.97
2018-12-31T16:44:19.991Z,89.65
2018-12-31T16:46:50.804Z,89.72
2018-12-31T16:49:21.606Z,89.80
2018-12-31T16:51:52.385Z,90.05
2018-12-31T16:54:23.144Z,90.12
2018-12-31T16:56:54.031Z,90.29
2018-12-31T16:59:24.857Z,90.41
2018-12-31T17:01:55.647Z,90.48
2018-12-31T17:04:26.452Z,90.43
2018-12-31T17:06:57.304Z,90.46
2018-12-31T17:09:28.052Z,90.34
2018-12-31T17:11:58.887Z,90.07
2018-12-31T17:14:29.720Z,89.88
2018-12-31T17:17:00.512Z,89.78
2018-12-31T17:19:31.592Z,89.85
2018-12-31T17:22:02.482Z,89.76
2018-12-31T17:24:33.402Z,89.59
2018-12-31T17:27:04.409Z,89.71
2018-12-31T17:29:35.218Z,89.12
2018-12-31T17:32:05.970Z,88.92
2018-12-31T17:34:36.817Z,87.61
2018-12-31T17:37:07.546Z,86.46
2018-12-31T17:39:38.294Z,86.61
2018-12-31T17:42:09.822Z,87.03
2018-12-31T17:44:40.897Z,87.42
2018-12-31T17:47:11.682Z,86.28
2018-12-31T17:49:42.612Z,86.73
2018-12-31T17:52:13.451Z,86.97
2018-12-31T17:54:44.215Z,86.39
2018-12-31T17:57:15.024Z,84.85
2018-12-31T17:59:45.879Z,85.40
2018-12-31T18:02:16.656Z,85.88
2018-12-31T18:04:47.436Z,84.30
2018-12-31T18:07:18.280Z,85.03
2018-12-31T18:09:49.130Z,85.46
2018-12-31T18:12:19.858Z,85.69
2018-12-31T18:14:50.644Z,85.61
2018-12-31T18:17:21.582Z,85.55
2018-12-31T18:19:52.354Z,84.72
2018-12-31T18:22:23.099Z,84.86
2018-12-31T18:24:53.925Z,84.96
2018-12-31T18:27:24.662Z,84.93
2018-12-31T18:29:55.426Z,85.06
2018-12-31T18:32:26.174Z,84.97
2018-12-31T18:34:57.020Z,85.09
2018-12-31T18:37:28.068Z,85.22
2018-12-31T18:39:58.860Z,85.25
2018-12-31T18:42:29.738Z,85.23
2018-12-31T18:45:00.521Z,85.14
2018-12-31T18:47:31.293Z,85.38
2018-12-31T18:50:03.398Z,85.55
2018-12-31T18:52:34.167Z,85.79
2018-12-31T18:55:05.014Z,85.87
2018-12-31T18:57:35.834Z,86.05
2018-12-31T19:00:07.755Z,86.01
2018-12-31T19:02:38.499Z,86.05
2018-12-31T19:05:11.174Z,86.17
2018-12-31T19:07:41.805Z,86.15
2018-12-31T19:10:12.584Z,86.05
2018-12-31T19:12:43.309Z,86.11
2018-12-31T19:15:14.098Z,86.30
2018-12-31T19:17:44.890Z,86.48
2018-12-31T19:20:15.654Z,86.58
2018-12-31T19:22:46.782Z,86.51
2018-12-31T19:25:17.539Z,86.46
2018-12-31T19:27:48.302Z,86.66
2018-12-31T19:30:19.071Z,86.86
2018-12-31T19:32:49.898Z,86.75
2018-12-31T19:35:20.705Z,86.81
2018-12-31T19:37:51.442Z,86.95
2018-12-31T19:40:22.242Z,86.97
2018-12-31T19:42:53.121Z,87.04
2018-12-31T19:45:24.187Z,87.15
2018-12-31T19:47:55.852Z,87.03
2018-12-31T19:50:26.721Z,86.93
2018-12-31T19:52:57.493Z,86.81
2018-12-31T19:55:28.270Z,86.92
2018-12-31T19:57:59.135Z,86.92
2018-12-31T20:00:29.936Z,86.89
2018-12-31T20:03:00.633Z,86.82
2018-12-31T20:05:31.371Z,86.74
2018-12-31T20:08:02.890Z,86.78
2018-12-31T20:10:34.673Z,86.72
2018-12-31T20:13:05.430Z,86.77
2018-12-31T20:15:36.173Z,86.64
2018-12-31T20:18:06.933Z,86.46
2018-12-31T20:20:37.809Z,86.40
2018-12-31T20:23:08.541Z,86.48
2018-12-31T20:25:39.353Z,86.49
2018-12-31T20:28:10.163Z,86.41
2018-12-31T20:30:41.203Z,86.52
2018-12-31T20:33:12.019Z,86.61
2018-12-31T20:35:42.824Z,86.38
2018-12-31T20:38:13.580Z,86.26
2018-12-31T20:40:44.331Z,86.07
2018-12-31T20:43:16.676Z,86.24
2018-12-31T20:45:47.456Z,86.35
2018-12-31T20:48:18.370Z,86.37
2018-12-31T20:50:49.144Z,86.35
2018-12-31T20:53:19.932Z,86.42
2018-12-31T20:55:50.870Z,86.33
2018-12-31T20:58:21.673Z,86.31
2018-12-31T21:00:52.409Z,86.46
2018-12-31T21:03:23.234Z,86.31
2018-12-31T21:05:54.050Z,86.12
2018-12-31T21:08:24.897Z,86.19
2018-12-31T21:10:55.626Z,86.11
2018-12-31T21:13:26.536Z,86.21
2018-12-31T21:15:57.441Z,86.20
2018-12-31T21:18:28.611Z,86.08
2018-12-31T21:20:59.326Z,86.40
2018-12-31T21:23:30.224Z,86.69
2018-12-31T21:26:01.031Z,87.05
2018-12-31T21:28:31.805Z,87.14
2018-12-31T21:31:02.583Z,87.42
2018-12-31T21:33:33.341Z,87.62
2018-12-31T21:36:04.145Z,87.70
2018-12-31T21:38:34.966Z,87.61
2018-12-31T21:41:05.864Z,87.71
2018-12-31T21:43:36.702Z,87.93
2018-12-31T21:46:07.460Z,88.08
2018-12-31T21:48:38.377Z,88.24
2018-12-31T21:51:09.128Z,88.12
2018-12-31T21:53:39.966Z,88.15
2018-12-31T21:56:10.844Z,88.17
2018-12-31T21:58:41.725Z,87.79
2018-12-31T22:01:12.480Z,87.99
2018-12-31T22:03:43.281Z,87.89
2018-12-31T22:06:14.020Z,87.79
2018-12-31T22:08:44.820Z,87.82
2018-12-31T22:11:15.565Z,87.74
2018-12-31T22:13:46.337Z,87.75
2018-12-31T22:16:17.394Z,87.95
2018-12-31T22:18:48.177Z,87.98
2018-12-31T22:21:18.965Z,88.02
2018-12-31T22:23:49.754Z,88.17
2018-12-31T22:26:20.545Z,88.17
2018-12-31T22:28:51.335Z,88.13
2018-12-31T22:31:22.031Z,88.07
2018-12-31T22:33:52.847Z,88.10
2018-12-31T22:36:23.582Z,88.14
2018-12-31T22:38:54.756Z,88.21
2018-12-31T22:41:25.539Z,88.10
2018-12-31T22:43:56.310Z,88.20
2018-12-31T22:46:27.031Z,87.95
2018-12-31T22:48:57.799Z,87.79
2018-12-31T22:51:28.645Z,87.67
2018-12-31T22:53:59.423Z,87.59
2018-12-31T22:56:30.125Z,87.21
2018-12-31T22:59:01.106Z,87.14
2018-12-31T23:01:32.136Z,87.11
2018-12-31T23:04:02.905Z,86.69
2018-12-31T23:06:33.865Z,85.88
2018-12-31T23:09:06.317Z,86.04
2018-12-31T23:11:37.072Z,86.02
2018-12-31T23:14:07.888Z,86.06
2018-12-31T23:16:38.775Z,85.87
2018-12-31T23:19:09.531Z,85.58
2018-12-31T23:21:40.273Z,85.49
2018-12-31T23:24:11.216Z,85.50
2018-12-31T23:26:42.012Z,85.74
2018-12-31T23:29:12.883Z,85.50
2018-12-31T23:31:43.811Z,85.73
2018-12-31T23:34:14.583Z,85.96
2018-12-31T23:36:45.322Z,84.93
2018-12-31T23:39:16.082Z,85.08
2018-12-31T23:41:46.868Z,84.36
2018-12-31T23:44:17.602Z,84.14
2018-12-31T23:46:48.687Z,83.70
2018-12-31T23:49:19.466Z,83.51
2018-12-31T23:51:50.259Z,83.61
2018-12-31T23:54:21.067Z,83.29
2018-12-31T23:56:51.797Z,82.91
2018-12-31T23:59:22.575Z,83.04
